Time;durP1;ratioP1;P1;durP2;ratioP2;P2;SDS_P1;SDS_P2;PMS_P1;PMS_P2;Temp;Humidity;BMP_temperature;BMP_pressure;BME280_temperature;BME280_humidity;BME280_pressure;Samples;Min_cycle;Max_cycle;Signal;HPM_P1;HPM_P2
2022/05/30 00:01:26;;;;;;;9.27;2.00;;;;;;;;;;5066947;28;20789;-51
2022/05/30 00:03:53;;;;;;;5.18;1.70;;;;;;;;;;5085104;28;20409;-53
2022/05/30 00:06:21;;;;;;;8.23;1.77;;;;;;;;;;5068338;28;20454;-53
2022/05/30 00:08:47;;;;;;;7.43;1.77;;;;;;;;;;5068818;28;20543;-56
2022/05/30 00:11:13;;;;;;;6.25;1.92;;;;;;;;;;5069652;28;20394;-51
2022/05/30 00:13:40;;;;;;;6.82;1.80;;;;;;;;;;5067452;28;20400;-56
2022/05/30 00:16:08;;;;;;;7.78;2.10;;;;;;;;;;5070715;28;20758;-53
2022/05/30 00:18:34;;;;;;;9.02;1.90;;;;;;;;;;5070995;28;20402;-51
2022/05/30 00:21:00;;;;;;;8.13;2.10;;;;;;;;;;5071195;28;20386;-50
2022/05/30 00:23:27;;;;;;;6.47;1.85;;;;;;;;;;5073007;28;20828;-53
2022/05/30 00:25:53;;;;;;;6.45;1.90;;;;;;;;;;5091734;28;20651;-53
2022/05/30 00:28:19;;;;;;;10.95;2.47;;;;;;;;;;5093810;28;20370;-54
2022/05/30 00:30:46;;;;;;;9.23;2.03;;;;;;;;;;5077059;28;20386;-52
2022/05/30 00:33:13;;;;;;;8.97;2.10;;;;;;;;;;5077293;28;20396;-51
2022/05/30 00:35:39;;;;;;;8.50;2.47;;;;;;;;;;5077213;28;20386;-54
2022/05/30 00:38:05;;;;;;;8.15;2.25;;;;;;;;;;5076053;28;20396;-49
2022/05/30 00:40:32;;;;;;;9.13;1.95;;;;;;;;;;5077122;28;20802;-54
2022/05/30 00:43:17;;;;;;;7.30;2.45;;;;;;;;;;5077653;28;20410;-54
2022/05/30 00:45:43;;;;;;;8.48;2.17;;;;;;;;;;5093833;28;20485;-55
2022/05/30 00:48:09;;;;;;;9.73;2.20;;;;;;;;;;5076574;28;20461;-50
2022/05/30 00:50:36;;;;;;;7.93;1.80;;;;;;;;;;5077523;28;20469;-56
2022/05/30 00:53:02;;;;;;;9.20;2.67;;;;;;;;;;5077849;28;20657;-54
2022/05/30 00:55:28;;;;;;;5.33;1.67;;;;;;;;;;5076739;28;20388;-52
2022/05/30 00:57:54;;;;;;;9.02;2.30;;;;;;;;;;5093501;28;20468;-57
2022/05/30 01:00:21;;;;;;;7.78;2.20;;;;;;;;;;5092930;28;20549;-54
2022/05/30 01:08:17;;;;;;;11.20;2.50;;;;;;;;;;5074227;28;20363;-53
2022/05/30 01:10:43;;;;;;;7.75;2.28;;;;;;;;;;5072668;28;20376;-54
2022/05/30 01:13:12;;;;;;;8.27;1.88;;;;;;;;;;5055518;28;20376;-52
2022/05/30 01:15:38;;;;;;;9.07;2.15;;;;;;;;;;5055651;28;20427;-55
2022/05/30 01:18:07;;;;;;;5.88;2.20;;;;;;;;;;5056518;28;20420;-53
2022/05/30 01:20:36;;;;;;;5.88;1.88;;;;;;;;;;5055787;28;20388;-53
2022/05/30 01:23:07;;;;;;;6.30;1.70;;;;;;;;;;5072200;28;20407;-57
2022/05/30 01:25:36;;;;;;;8.63;2.03;;;;;;;;;;5055595;28;20383;-55
2022/05/30 01:28:14;;;;;;;8.15;2.00;;;;;;;;;;5054986;28;20376;-55
2022/05/30 01:30:41;;;;;;;5.85;1.98;;;;;;;;;;5056471;28;20426;-55
2022/05/30 01:33:07;;;;;;;6.38;1.85;;;;;;;;;;5074226;28;20406;-50
2022/05/30 01:35:33;;;;;;;7.50;1.83;;;;;;;;;;5055611;28;20675;-55
2022/05/30 01:38:00;;;;;;;5.82;2.30;;;;;;;;;;5054796;28;20847;-54
2022/05/30 01:40:26;;;;;;;7.78;1.90;;;;;;;;;;5072198;28;20483;-56
2022/05/30 01:42:53;;;;;;;8.63;2.45;;;;;;;;;;5054911;28;20403;-56
2022/05/30 01:45:19;;;;;;;8.07;2.30;;;;;;;;;;5056162;28;20780;-54
2022/05/30 01:47:45;;;;;;;11.38;2.70;;;;;;;;;;5056419;28;20377;-55
2022/05/30 01:50:11;;;;;;;5.00;1.70;;;;;;;;;;5056323;28;20429;-52
2022/05/30 01:52:37;;;;;;;7.63;2.10;;;;;;;;;;5055405;28;20537;-53
2022/05/30 01:55:04;;;;;;;9.50;2.08;;;;;;;;;;5056901;28;20383;-54
2022/05/30 01:57:30;;;;;;;8.73;1.80;;;;;;;;;;5058308;28;20757;-53
2022/05/30 01:59:56;;;;;;;5.93;1.63;;;;;;;;;;5058232;28;20403;-53
2022/05/30 02:02:22;;;;;;;6.17;2.00;;;;;;;;;;5055453;28;20461;-50
2022/05/30 02:04:48;;;;;;;6.25;1.83;;;;;;;;;;5056877;28;20667;-54
2022/05/30 02:07:14;;;;;;;10.88;2.20;;;;;;;;;;5056959;28;20376;-54
2022/05/30 02:09:40;;;;;;;8.80;2.47;;;;;;;;;;5055207;28;20444;-55
2022/05/30 02:12:06;;;;;;;9.95;2.35;;;;;;;;;;5055528;28;20379;-55
2022/05/30 02:14:32;;;;;;;8.57;2.08;;;;;;;;;;5054987;28;20387;-52
2022/05/30 02:17:01;;;;;;;9.00;2.23;;;;;;;;;;5056812;28;20640;-51
2022/05/30 02:19:28;;;;;;;6.55;1.92;;;;;;;;;;5073953;28;20508;-52
2022/05/30 02:21:54;;;;;;;8.40;2.13;;;;;;;;;;5055954;28;20615;-54
2022/05/30 02:24:19;;;;;;;5.83;1.87;;;;;;;;;;5056287;28;20471;-54
2022/05/30 02:26:46;;;;;;;8.93;1.93;;;;;;;;;;5056995;28;20395;-55
2022/05/30 02:29:12;;;;;;;10.68;1.92;;;;;;;;;;5057248;28;20395;-53
2022/05/30 02:31:38;;;;;;;5.90;2.40;;;;;;;;;;5074251;28;20395;-54
2022/05/30 02:36:48;;;;;;;8.70;2.05;;;;;;;;;;5073119;28;20371;-52
2022/05/30 02:39:16;;;;;;;6.93;1.83;;;;;;;;;;5054033;28;20384;-54
2022/05/30 02:41:44;;;;;;;9.80;2.28;;;;;;;;;;5053867;28;20380;-53
2022/05/30 02:44:10;;;;;;;7.72;1.75;;;;;;;;;;5071777;28;20415;-53
2022/05/30 02:46:36;;;;;;;10.85;2.45;;;;;;;;;;5054604;28;20589;-51
2022/05/30 02:49:02;;;;;;;8.70;2.10;;;;;;;;;;5053205;28;20517;-51
2022/05/30 02:51:28;;;;;;;9.35;2.22;;;;;;;;;;5071227;28;20376;-51
2022/05/30 02:53:54;;;;;;;6.60;2.00;;;;;;;;;;5071604;28;20379;-54
2022/05/30 02:56:21;;;;;;;7.43;1.90;;;;;;;;;;5054025;28;20380;-51
2022/05/30 02:58:47;;;;;;;6.63;1.80;;;;;;;;;;5055306;28;20811;-50
2022/05/30 03:01:13;;;;;;;7.60;1.80;;;;;;;;;;5062351;28;20822;-53
2022/05/30 03:03:39;;;;;;;8.68;2.25;;;;;;;;;;5073998;28;20397;-53
2022/05/30 03:06:05;;;;;;;6.25;1.58;;;;;;;;;;5074103;28;20557;-54
2022/05/30 03:08:31;;;;;;;5.30;1.58;;;;;;;;;;5074226;28;20728;-50
2022/05/30 03:10:57;;;;;;;6.38;1.60;;;;;;;;;;5094404;28;20962;-52
2022/05/30 03:13:24;;;;;;;4.85;1.80;;;;;;;;;;5075189;28;20381;-56
2022/05/30 03:15:49;;;;;;;7.55;2.35;;;;;;;;;;5073183;28;20404;-51
2022/05/30 03:18:15;;;;;;;6.70;1.50;;;;;;;;;;5074388;28;20390;-53
2022/05/30 03:20:41;;;;;;;4.60;1.50;;;;;;;;;;5073378;28;20390;-56
2022/05/30 03:23:07;;;;;;;6.03;1.50;;;;;;;;;;5073536;28;20406;-51
2022/05/30 03:25:34;;;;;;;6.97;1.88;;;;;;;;;;5072606;28;20378;-54
2022/05/30 03:28:00;;;;;;;5.60;1.57;;;;;;;;;;5071215;28;20383;-55
2022/05/30 03:30:26;;;;;;;8.75;2.20;;;;;;;;;;5091369;28;20390;-54
2022/05/30 03:35:56;;;;;;;7.53;2.05;;;;;;;;;;5094211;28;20634;-55
2022/05/30 03:38:22;;;;;;;5.70;1.52;;;;;;;;;;5074531;28;20390;-55
2022/05/30 03:40:48;;;;;;;6.85;1.90;;;;;;;;;;5073940;28;20402;-52
2022/05/30 03:43:14;;;;;;;5.63;1.83;;;;;;;;;;5074328;28;20417;-55
2022/05/30 03:45:42;;;;;;;6.40;1.67;;;;;;;;;;5074958;28;20480;-54
2022/05/30 03:48:08;;;;;;;8.53;1.97;;;;;;;;;;5092134;28;20531;-52
2022/05/30 03:50:34;;;;;;;5.67;1.53;;;;;;;;;;5073515;28;20731;-54
2022/05/30 03:53:04;;;;;;;7.00;1.80;;;;;;;;;;5074071;28;20389;-56
2022/05/30 03:55:31;;;;;;;5.38;1.65;;;;;;;;;;5072720;28;20382;-55
2022/05/30 03:57:57;;;;;;;5.90;1.30;;;;;;;;;;5074483;28;20378;-52
2022/05/30 04:00:24;;;;;;;5.20;1.60;;;;;;;;;;5076900;28;20677;-55
2022/05/30 04:02:50;;;;;;;5.85;2.03;;;;;;;;;;5074611;28;20407;-53
2022/05/30 04:05:20;;;;;;;6.30;2.00;;;;;;;;;;5074897;28;20380;-52
2022/05/30 04:07:46;;;;;;;5.30;1.67;;;;;;;;;;5076662;28;20628;-54
2022/05/30 04:10:13;;;;;;;5.60;1.40;;;;;;;;;;5060030;28;20470;-51
2022/05/30 04:12:39;;;;;;;6.35;1.58;;;;;;;;;;5059048;28;20672;-50
2022/05/30 04:15:06;;;;;;;4.50;1.67;;;;;;;;;;5075431;28;20387;-54
2022/05/30 04:17:33;;;;;;;7.15;1.75;;;;;;;;;;5074534;28;20391;-55
2022/05/30 04:19:59;;;;;;;6.80;1.92;;;;;;;;;;5072781;28;20424;-54
2022/05/30 04:22:25;;;;;;;7.22;1.55;;;;;;;;;;5055012;28;20479;-51
2022/05/30 04:24:52;;;;;;;6.40;1.50;;;;;;;;;;5051979;28;20391;-54
2022/05/30 04:27:18;;;;;;;6.05;1.80;;;;;;;;;;5051237;28;20384;-52
2022/05/30 04:29:44;;;;;;;5.13;1.67;;;;;;;;;;5051216;28;20399;-53
2022/05/30 04:32:10;;;;;;;5.32;1.65;;;;;;;;;;5051394;28;20494;-53
2022/05/30 04:34:36;;;;;;;6.15;1.83;;;;;;;;;;5069756;28;20476;-53
2022/05/30 04:37:03;;;;;;;3.85;1.48;;;;;;;;;;5071138;28;20384;-54
2022/05/30 04:39:29;;;;;;;4.88;1.63;;;;;;;;;;5053372;28;20384;-54
2022/05/30 04:41:55;;;;;;;5.10;1.87;;;;;;;;;;5051603;28;20376;-53
2022/05/30 04:44:21;;;;;;;5.82;1.95;;;;;;;;;;5070245;28;20480;-52
2022/05/30 04:46:51;;;;;;;6.13;1.95;;;;;;;;;;5052263;28;20410;-51
2022/05/30 04:49:17;;;;;;;6.60;2.00;;;;;;;;;;5052471;28;20626;-51
2022/05/30 04:51:44;;;;;;;11.18;2.33;;;;;;;;;;5051590;28;20475;-51
2022/05/30 04:54:10;;;;;;;6.65;2.08;;;;;;;;;;5053177;28;20384;-55
2022/05/30 04:56:36;;;;;;;3.58;1.55;;;;;;;;;;5054466;28;20399;-55
2022/05/30 04:59:02;;;;;;;10.75;2.45;;;;;;;;;;5055396;28;20688;-56
2022/05/30 05:01:30;;;;;;;8.00;2.20;;;;;;;;;;5072764;28;20481;-54
2022/05/30 05:03:55;;;;;;;7.28;2.05;;;;;;;;;;5056444;28;20399;-55
2022/05/30 05:06:22;;;;;;;6.88;2.30;;;;;;;;;;5054401;28;20391;-56
2022/05/30 05:08:49;;;;;;;7.87;2.47;;;;;;;;;;5070197;28;20441;-52
2022/05/30 05:11:22;;;;;;;5.32;1.90;;;;;;;;;;5050084;28;20380;-57
2022/05/30 05:13:49;;;;;;;7.85;2.38;;;;;;;;;;5048725;28;20814;-56
2022/05/30 05:16:15;;;;;;;7.35;2.20;;;;;;;;;;5048360;28;20387;-53
2022/05/30 05:18:41;;;;;;;9.15;2.03;;;;;;;;;;5050462;28;20490;-57
2022/05/30 05:21:07;;;;;;;7.85;2.35;;;;;;;;;;5051691;28;20443;-54
2022/05/30 05:23:33;;;;;;;9.20;2.85;;;;;;;;;;5050871;28;20412;-52
2022/05/30 05:26:01;;;;;;;9.32;2.50;;;;;;;;;;5068050;28;20449;-50
2022/05/30 05:28:28;;;;;;;6.43;2.30;;;;;;;;;;5047348;28;20775;-52
2022/05/30 05:30:54;;;;;;;7.57;2.63;;;;;;;;;;5066130;28;20730;-53
2022/05/30 05:33:20;;;;;;;7.72;2.20;;;;;;;;;;5064884;28;20380;-57
2022/05/30 05:35:46;;;;;;;5.35;2.00;;;;;;;;;;5063925;28;20386;-54
2022/05/30 05:38:18;;;;;;;5.05;1.75;;;;;;;;;;5065194;28;20916;-54
2022/05/30 05:46:45;;;;;;;4.35;1.90;;;;;;;;;;5062016;28;20509;-54
2022/05/30 05:49:17;;;;;;;8.00;2.78;;;;;;;;;;5044360;28;20392;-56
2022/05/30 05:51:53;;;;;;;7.45;2.10;;;;;;;;;;5063252;28;20474;-50
2022/05/30 06:00:08;;;;;;;8.48;2.50;;;;;;;;;;5072442;28;20352;-57
2022/05/30 06:02:34;;;;;;;7.60;2.47;;;;;;;;;;5058788;28;20457;-53
2022/05/30 06:05:01;;;;;;;8.20;2.33;;;;;;;;;;5058456;28;20597;-57
2022/05/30 06:07:27;;;;;;;9.07;2.58;;;;;;;;;;5060893;28;20404;-54
2022/05/30 06:09:53;;;;;;;3.58;2.05;;;;;;;;;;5060986;28;20466;-52
2022/05/30 06:12:19;;;;;;;11.90;2.92;;;;;;;;;;5079436;28;20374;-55
2022/05/30 06:14:45;;;;;;;9.77;2.13;;;;;;;;;;5080569;28;20381;-57
2022/05/30 06:17:11;;;;;;;9.40;2.60;;;;;;;;;;5064342;28;20465;-51
2022/05/30 06:19:37;;;;;;;6.38;1.98;;;;;;;;;;5066764;28;20461;-54
2022/05/30 06:22:03;;;;;;;6.55;2.30;;;;;;;;;;5066010;28;20390;-52
2022/05/30 06:24:29;;;;;;;5.47;1.77;;;;;;;;;;5067860;28;20744;-54
2022/05/30 06:26:55;;;;;;;6.25;2.22;;;;;;;;;;5071251;28;21014;-56
2022/05/30 06:29:21;;;;;;;4.53;1.80;;;;;;;;;;5067645;28;20409;-55
2022/05/30 06:31:47;;;;;;;6.00;2.22;;;;;;;;;;5084739;28;20719;-55
2022/05/30 06:34:13;;;;;;;9.57;2.30;;;;;;;;;;5066911;28;20382;-54
2022/05/30 06:36:41;;;;;;;8.40;2.42;;;;;;;;;;5064510;28;20494;-52
2022/05/30 06:39:07;;;;;;;7.57;2.47;;;;;;;;;;5084077;28;20610;-56
2022/05/30 06:41:33;;;;;;;6.78;2.00;;;;;;;;;;5064690;28;20851;-58
2022/05/30 06:44:02;;;;;;;6.57;1.85;;;;;;;;;;5082523;28;20413;-52
2022/05/30 06:46:29;;;;;;;4.93;1.90;;;;;;;;;;5065363;28;20985;-57
2022/05/30 06:48:56;;;;;;;9.95;2.25;;;;;;;;;;5082787;28;20618;-55
2022/05/30 06:51:23;;;;;;;5.50;1.90;;;;;;;;;;5064265;28;20623;-56
2022/05/30 06:53:49;;;;;;;4.15;1.60;;;;;;;;;;5064376;28;20988;-53
2022/05/30 06:56:16;;;;;;;5.93;1.73;;;;;;;;;;5065746;28;20389;-56
2022/05/30 06:58:43;;;;;;;6.57;1.90;;;;;;;;;;5064635;28;20476;-53
2022/05/30 07:01:09;;;;;;;5.95;2.03;;;;;;;;;;5062099;28;20422;-53
2022/05/30 07:03:36;;;;;;;6.03;2.22;;;;;;;;;;5061613;28;20793;-55
2022/05/30 07:06:05;;;;;;;6.18;1.75;;;;;;;;;;5060849;28;20790;-56
2022/05/30 07:08:31;;;;;;;8.87;2.50;;;;;;;;;;5062510;28;20370;-53
2022/05/30 07:10:57;;;;;;;7.50;2.15;;;;;;;;;;5063192;28;20660;-55
2022/05/30 07:13:23;;;;;;;6.40;1.77;;;;;;;;;;5080649;28;20374;-53
2022/05/30 07:15:50;;;;;;;5.85;1.75;;;;;;;;;;5062696;28;20643;-57
2022/05/30 07:18:18;;;;;;;5.25;1.50;;;;;;;;;;5061356;28;20377;-56
2022/05/30 07:20:44;;;;;;;5.20;1.77;;;;;;;;;;5060900;28;20470;-50
2022/05/30 07:23:11;;;;;;;6.00;1.70;;;;;;;;;;5077933;28;20809;-54
2022/05/30 07:25:38;;;;;;;5.55;1.48;;;;;;;;;;5060216;28;20746;-56
2022/05/30 07:28:05;;;;;;;8.38;2.05;;;;;;;;;;5077638;28;20378;-54
2022/05/30 07:30:34;;;;;;;6.65;1.80;;;;;;;;;;5078235;28;20375;-55
2022/05/30 07:33:00;;;;;;;6.10;1.60;;;;;;;;;;5072692;28;20406;-53
2022/05/30 07:35:26;;;;;;;6.03;1.60;;;;;;;;;;5060622;28;20448;-55
2022/05/30 07:37:52;;;;;;;6.47;1.40;;;;;;;;;;5060148;28;20405;-55
2022/05/30 07:40:18;;;;;;;5.55;1.60;;;;;;;;;;5058672;28;20387;-54
2022/05/30 07:42:44;;;;;;;5.75;1.50;;;;;;;;;;5061871;28;20408;-52
2022/05/30 07:45:10;;;;;;;5.55;1.50;;;;;;;;;;5062238;28;20370;-50
2022/05/30 07:47:37;;;;;;;5.22;1.42;;;;;;;;;;5061843;28;20691;-53
2022/05/30 07:50:03;;;;;;;3.67;1.15;;;;;;;;;;5079412;28;20402;-55
2022/05/30 07:52:32;;;;;;;7.47;1.98;;;;;;;;;;5060445;28;20400;-50
2022/05/30 07:54:59;;;;;;;8.13;1.95;;;;;;;;;;5061627;28;20450;-56
2022/05/30 08:00:10;;;;;;;6.63;1.63;;;;;;;;;;5079082;28;20648;-53
2022/05/30 08:02:38;;;;;;;4.35;1.40;;;;;;;;;;5058174;28;20410;-51
2022/05/30 08:05:04;;;;;;;3.72;1.30;;;;;;;;;;5058522;28;20657;-51
2022/05/30 08:07:30;;;;;;;6.07;1.70;;;;;;;;;;5060110;28;20390;-53
2022/05/30 08:09:56;;;;;;;5.47;1.50;;;;;;;;;;5058283;28;20855;-51
2022/05/30 08:12:22;;;;;;;4.40;1.50;;;;;;;;;;5057075;28;20442;-53
2022/05/30 08:14:48;;;;;;;4.72;1.48;;;;;;;;;;5055729;28;20521;-50
2022/05/30 08:17:14;;;;;;;3.67;1.42;;;;;;;;;;5055272;28;20473;-54
2022/05/30 08:19:40;;;;;;;5.72;1.90;;;;;;;;;;5060655;28;20654;-52
2022/05/30 08:22:07;;;;;;;7.57;1.95;;;;;;;;;;5058243;28;20495;-52
2022/05/30 08:24:37;;;;;;;5.07;1.60;;;;;;;;;;5060103;28;21003;-53
2022/05/30 08:27:03;;;;;;;4.32;1.40;;;;;;;;;;5079470;28;20673;-52
2022/05/30 08:29:29;;;;;;;5.03;1.90;;;;;;;;;;5065100;28;20382;-51
2022/05/30 08:31:56;;;;;;;3.85;1.35;;;;;;;;;;5061920;28;20455;-53
2022/05/30 08:34:22;;;;;;;8.35;1.88;;;;;;;;;;5080390;28;20381;-53
2022/05/30 08:36:48;;;;;;;3.08;1.58;;;;;;;;;;5062580;28;20395;-51
2022/05/30 08:42:00;;;;;;;4.47;1.55;;;;;;;;;;5076723;28;20971;-54
2022/05/30 08:44:29;;;;;;;3.78;1.58;;;;;;;;;;5060589;28;20566;-56
2022/05/30 08:47:15;;;;;;;5.07;1.58;;;;;;;;;;5061991;28;20382;-51
2022/05/30 08:49:46;;;;;;;3.33;1.13;;;;;;;;;;5063119;28;20405;-55
2022/05/30 08:52:31;;;;;;;3.03;1.40;;;;;;;;;;5066598;28;20599;-51
2022/05/30 08:55:19;;;;;;;4.80;1.38;;;;;;;;;;5082321;28;20779;-57
2022/05/30 08:57:52;;;;;;;4.18;1.30;;;;;;;;;;5024457;28;20458;-55
2022/05/30 09:00:27;;;;;;;4.25;1.30;;;;;;;;;;5080178;28;20692;-52
2022/05/30 09:03:09;;;;;;;3.73;1.30;;;;;;;;;;5059264;28;20805;-55
2022/05/30 09:05:37;;;;;;;4.38;1.55;;;;;;;;;;5057808;28;20381;-52
2022/05/30 09:08:05;;;;;;;3.60;1.40;;;;;;;;;;5057634;28;20387;-49
2022/05/30 09:10:38;;;;;;;4.55;1.40;;;;;;;;;;5057910;28;20382;-55
2022/05/30 09:13:22;;;;;;;5.05;1.33;;;;;;;;;;5076036;28;20617;-53
2022/05/30 09:16:06;;;;;;;6.80;1.90;;;;;;;;;;5058197;28;20383;-53
2022/05/30 09:18:36;;;;;;;3.08;1.20;;;;;;;;;;5065290;28;20377;-56
2022/05/30 09:21:02;;;;;;;4.22;1.40;;;;;;;;;;5072073;28;20394;-55
2022/05/30 09:23:28;;;;;;;2.55;1.10;;;;;;;;;;5070525;28;20418;-55
2022/05/30 09:25:57;;;;;;;4.37;1.53;;;;;;;;;;5072249;28;20422;-55
2022/05/30 09:28:33;;;;;;;4.73;1.53;;;;;;;;;;5072918;28;21096;-54
2022/05/30 09:31:18;;;;;;;2.75;1.00;;;;;;;;;;5090385;28;21016;-54
2022/05/30 09:33:46;;;;;;;3.00;1.40;;;;;;;;;;5071113;28;20383;-62
2022/05/30 09:36:14;;;;;;;4.38;1.30;;;;;;;;;;5087530;28;20400;-55
2022/05/30 09:38:45;;;;;;;4.50;1.30;;;;;;;;;;5061816;28;20473;-57
2022/05/30 09:41:17;;;;;;;3.00;1.30;;;;;;;;;;5062630;28;20378;-55
2022/05/30 09:43:54;;;;;;;3.20;1.03;;;;;;;;;;5063424;28;20394;-55
2022/05/30 09:46:26;;;;;;;4.22;1.35;;;;;;;;;;5065867;28;20382;-51
2022/05/30 09:49:06;;;;;;;3.85;1.17;;;;;;;;;;5068216;28;20375;-57
2022/05/30 09:51:33;;;;;;;3.77;1.13;;;;;;;;;;5068642;28;20386;-54
2022/05/30 09:53:59;;;;;;;1.92;1.00;;;;;;;;;;5070081;28;20398;-57
2022/05/30 09:56:27;;;;;;;4.25;1.35;;;;;;;;;;5070778;28;20393;-57
2022/05/30 09:59:23;;;;;;;5.68;1.60;;;;;;;;;;5067194;28;20393;-57
2022/05/30 10:01:50;;;;;;;2.60;0.90;;;;;;;;;;5040987;28;20549;-54
2022/05/30 10:04:16;;;;;;;1.90;0.82;;;;;;;;;;5073616;28;20413;-57
2022/05/30 10:06:42;;;;;;;3.50;1.30;;;;;;;;;;5055566;28;20390;-55
2022/05/30 10:09:14;;;;;;;4.55;1.25;;;;;;;;;;5076343;28;20392;-55
2022/05/30 10:11:40;;;;;;;3.45;1.20;;;;;;;;;;5060662;28;20654;-57
2022/05/30 10:14:26;;;;;;;2.88;1.10;;;;;;;;;;5063927;28;20728;-54
2022/05/30 10:16:54;;;;;;;3.95;1.30;;;;;;;;;;5062925;28;20456;-55
2022/05/30 10:19:28;;;;;;;3.42;1.30;;;;;;;;;;5065026;28;20396;-53
2022/05/30 10:28:14;;;;;;;2.15;1.10;;;;;;;;;;5081061;28;20594;-55
2022/05/30 10:30:46;;;;;;;1.90;1.10;;;;;;;;;;5063501;28;20374;-54
2022/05/30 10:33:15;;;;;;;2.83;1.35;;;;;;;;;;5082305;28;20459;-54
2022/05/30 10:35:54;;;;;;;1.95;0.70;;;;;;;;;;5081552;28;20627;-54
2022/05/30 10:38:20;;;;;;;1.95;0.60;;;;;;;;;;5079204;28;20385;-58
2022/05/30 10:40:50;;;;;;;1.70;0.70;;;;;;;;;;5059707;28;20426;-56
2022/05/30 10:43:25;;;;;;;1.08;0.70;;;;;;;;;;5059965;28;20902;-55
2022/05/30 10:45:53;;;;;;;1.00;0.50;;;;;;;;;;5060464;28;20881;-55
2022/05/30 10:48:31;;;;;;;0.95;0.50;;;;;;;;;;5060658;28;20379;-54
2022/05/30 10:51:15;;;;;;;1.17;0.65;;;;;;;;;;5078788;28;20561;-57
2022/05/30 10:53:50;;;;;;;2.05;0.65;;;;;;;;;;5083988;28;20670;-56
2022/05/30 10:56:27;;;;;;;1.02;0.60;;;;;;;;;;5064364;28;20583;-54
2022/05/30 10:58:57;;;;;;;1.70;0.60;;;;;;;;;;5064050;28;20417;-55
2022/05/30 11:01:31;;;;;;;1.27;0.57;;;;;;;;;;5064356;28;20693;-52
2022/05/30 11:04:06;;;;;;;1.67;0.40;;;;;;;;;;5063086;28;20552;-52
2022/05/30 11:06:34;;;;;;;1.58;0.52;;;;;;;;;;5063248;28;20700;-55
2022/05/30 11:09:35;;;;;;;1.10;0.40;;;;;;;;;;5061404;28;20731;-53
2022/05/30 11:12:16;;;;;;;1.00;0.40;;;;;;;;;;4980290;28;20488;-55
2022/05/30 11:14:48;;;;;;;2.20;0.60;;;;;;;;;;5070733;28;20406;-55
2022/05/30 11:17:34;;;;;;;0.75;0.30;;;;;;;;;;5062661;28;20389;-52
2022/05/30 11:20:11;;;;;;;1.90;0.70;;;;;;;;;;5059474;28;20410;-56
2022/05/30 11:22:46;;;;;;;1.55;0.52;;;;;;;;;;5057991;28;20680;-52
2022/05/30 11:25:14;;;;;;;1.17;0.60;;;;;;;;;;5075111;28;20788;-51
2022/05/30 11:27:53;;;;;;;1.10;0.60;;;;;;;;;;5055506;28;20412;-54
2022/05/30 11:30:25;;;;;;;1.55;0.75;;;;;;;;;;5054267;28;20797;-51
2022/05/30 11:33:07;;;;;;;1.25;0.50;;;;;;;;;;5072296;28;21128;-55
2022/05/30 11:35:35;;;;;;;1.98;0.68;;;;;;;;;;5073447;28;20663;-54
2022/05/30 11:38:14;;;;;;;1.13;0.50;;;;;;;;;;5055106;28;20378;-52
2022/05/30 11:40:43;;;;;;;2.20;0.65;;;;;;;;;;5056019;28;20913;-53
2022/05/30 11:43:09;;;;;;;1.55;0.50;;;;;;;;;;5055322;28;20478;-53
2022/05/30 11:45:35;;;;;;;1.70;0.60;;;;;;;;;;5052416;28;20416;-53
2022/05/30 11:48:25;;;;;;;2.20;0.87;;;;;;;;;;5055179;28;20419;-57
2022/05/30 11:50:54;;;;;;;1.73;0.50;;;;;;;;;;5062783;28;20459;-54
2022/05/30 11:53:33;;;;;;;2.92;0.85;;;;;;;;;;5072748;28;20575;-56
2022/05/30 11:56:17;;;;;;;2.13;0.95;;;;;;;;;;5074106;28;20465;-53
2022/05/30 11:58:52;;;;;;;1.30;0.60;;;;;;;;;;5057841;28;20650;-55
2022/05/30 12:01:19;;;;;;;3.20;0.70;;;;;;;;;;5050163;28;20411;-54
2022/05/30 12:04:14;;;;;;;1.88;0.70;;;;;;;;;;5036171;28;20438;-55
2022/05/30 12:06:55;;;;;;;2.58;1.08;;;;;;;;;;5036329;28;20411;-56
2022/05/30 12:09:25;;;;;;;3.40;1.00;;;;;;;;;;5035988;28;20391;-54
2022/05/30 12:11:51;;;;;;;2.03;0.82;;;;;;;;;;5038250;28;20487;-55
2022/05/30 12:14:32;;;;;;;2.83;0.90;;;;;;;;;;5041352;28;20479;-55
2022/05/30 12:17:13;;;;;;;2.25;0.80;;;;;;;;;;5058576;28;20431;-52
2022/05/30 12:25:36;;;;;;;1.70;0.60;;;;;;;;;;5055743;28;20639;-55
2022/05/30 12:28:09;;;;;;;3.40;0.63;;;;;;;;;;5038986;28;20551;-55
2022/05/30 12:30:35;;;;;;;1.63;0.73;;;;;;;;;;5035371;28;20379;-56
2022/05/30 12:33:20;;;;;;;3.63;0.80;;;;;;;;;;5036424;28;20525;-54
2022/05/30 12:35:46;;;;;;;2.40;0.63;;;;;;;;;;5038897;28;20376;-55
2022/05/30 12:38:14;;;;;;;2.90;1.00;;;;;;;;;;5037177;28;20607;-55
2022/05/30 12:40:44;;;;;;;1.50;0.70;;;;;;;;;;5040089;28;20656;-53
2022/05/30 12:43:27;;;;;;;2.17;0.63;;;;;;;;;;5058643;28;20411;-50
2022/05/30 12:45:56;;;;;;;1.45;0.55;;;;;;;;;;5039556;28;20380;-53
2022/05/30 12:48:28;;;;;;;1.40;0.57;;;;;;;;;;5058674;28;20739;-54
2022/05/30 12:50:54;;;;;;;1.17;0.50;;;;;;;;;;5041461;28;20392;-54
2022/05/30 12:53:22;;;;;;;3.03;0.82;;;;;;;;;;5042515;28;20589;-54
2022/05/30 12:55:49;;;;;;;4.05;0.60;;;;;;;;;;5041997;28;20408;-57
2022/05/30 12:58:39;;;;;;;2.00;0.70;;;;;;;;;;5041442;28;20384;-52
2022/05/30 13:01:08;;;;;;;1.52;0.70;;;;;;;;;;5021299;28;20416;-55
2022/05/30 13:03:35;;;;;;;1.80;0.70;;;;;;;;;;5041482;28;20485;-50
2022/05/30 13:06:06;;;;;;;2.30;0.82;;;;;;;;;;5041915;28;20660;-53
2022/05/30 13:08:51;;;;;;;2.03;0.90;;;;;;;;;;5041922;28;20575;-52
2022/05/30 13:11:41;;;;;;;1.10;0.80;;;;;;;;;;5042744;28;20368;-52
2022/05/30 13:14:17;;;;;;;2.50;0.97;;;;;;;;;;5043347;28;20463;-55
2022/05/30 13:16:44;;;;;;;2.20;1.10;;;;;;;;;;5065922;28;20380;-57
2022/05/30 13:19:13;;;;;;;2.15;1.00;;;;;;;;;;5067737;28;20384;-56
2022/05/30 13:21:44;;;;;;;2.95;0.93;;;;;;;;;;5068619;28;20403;-56
2022/05/30 13:24:32;;;;;;;2.15;1.17;;;;;;;;;;5052116;28;20431;-53
2022/05/30 13:27:00;;;;;;;1.02;0.57;;;;;;;;;;5051351;28;20384;-54
2022/05/30 13:29:32;;;;;;;2.08;0.80;;;;;;;;;;5051304;28;20383;-55
2022/05/30 13:31:58;;;;;;;2.17;0.73;;;;;;;;;;5049428;28;20638;-52
2022/05/30 13:34:28;;;;;;;2.28;0.60;;;;;;;;;;5049637;28;20394;-56
2022/05/30 13:36:55;;;;;;;3.50;1.13;;;;;;;;;;5050854;28;20399;-53
2022/05/30 13:39:22;;;;;;;2.63;0.95;;;;;;;;;;5066671;28;20384;-54
2022/05/30 13:41:49;;;;;;;3.50;0.93;;;;;;;;;;5048477;28;20551;-53
2022/05/30 13:44:17;;;;;;;1.55;1.00;;;;;;;;;;5064936;28;20399;-53
2022/05/30 13:46:45;;;;;;;2.30;1.20;;;;;;;;;;5026173;28;20441;-57
2022/05/30 13:49:11;;;;;;;5.25;1.10;;;;;;;;;;5052797;28;20375;-54
2022/05/30 13:51:45;;;;;;;3.00;1.30;;;;;;;;;;5034531;28;20764;-53
2022/05/30 13:54:12;;;;;;;3.42;1.15;;;;;;;;;;5031951;28;20402;-54
2022/05/30 13:56:39;;;;;;;2.50;1.00;;;;;;;;;;5033784;28;20395;-54
2022/05/30 13:59:14;;;;;;;2.08;0.88;;;;;;;;;;5054206;28;20379;-54
2022/05/30 14:01:40;;;;;;;1.30;0.80;;;;;;;;;;5048056;28;20422;-55
2022/05/30 14:04:07;;;;;;;3.07;1.00;;;;;;;;;;5058867;28;20629;-53
2022/05/30 14:06:35;;;;;;;1.40;0.55;;;;;;;;;;5058318;28;20674;-54
2022/05/30 14:09:03;;;;;;;1.40;0.60;;;;;;;;;;5058630;28;20858;-57
2022/05/30 14:11:31;;;;;;;2.45;0.77;;;;;;;;;;5056518;28;20375;-57
2022/05/30 14:13:57;;;;;;;2.17;1.00;;;;;;;;;;5058472;28;20477;-54
2022/05/30 14:16:37;;;;;;;2.50;0.70;;;;;;;;;;5060531;28;20806;-54
2022/05/30 14:19:03;;;;;;;1.57;0.60;;;;;;;;;;5059948;28;20571;-51
2022/05/30 14:21:30;;;;;;;1.75;0.80;;;;;;;;;;5078679;28;20390;-56
2022/05/30 14:24:03;;;;;;;1.88;0.68;;;;;;;;;;5063084;28;20402;-55
2022/05/30 14:26:30;;;;;;;1.65;0.75;;;;;;;;;;5063635;28;20529;-54
2022/05/30 14:29:29;;;;;;;1.65;0.75;;;;;;;;;;5061420;28;20770;-52
2022/05/30 14:32:02;;;;;;;1.83;0.68;;;;;;;;;;5016807;28;20636;-53
2022/05/30 14:34:41;;;;;;;1.48;0.70;;;;;;;;;;5058632;28;20639;-54
2022/05/30 14:37:26;;;;;;;1.63;0.55;;;;;;;;;;5060286;28;20401;-54
2022/05/30 14:39:53;;;;;;;2.60;0.70;;;;;;;;;;5058743;28;20382;-54
2022/05/30 14:42:21;;;;;;;2.17;0.80;;;;;;;;;;5053502;28;20382;-50
2022/05/30 14:44:52;;;;;;;1.30;0.80;;;;;;;;;;5074178;28;20402;-55
2022/05/30 14:47:22;;;;;;;1.60;0.80;;;;;;;;;;5058864;28;20485;-55
2022/05/30 14:49:54;;;;;;;2.78;1.00;;;;;;;;;;5057491;28;20572;-54
2022/05/30 14:52:30;;;;;;;3.78;1.08;;;;;;;;;;5059611;28;20398;-52
2022/05/30 14:54:56;;;;;;;1.80;0.70;;;;;;;;;;5060379;28;20469;-54
2022/05/30 14:57:27;;;;;;;1.75;0.80;;;;;;;;;;5059267;28;20706;-53
2022/05/30 14:59:54;;;;;;;2.08;0.70;;;;;;;;;;5059844;28;20413;-57
2022/05/30 15:05:08;;;;;;;1.95;0.70;;;;;;;;;;5066289;28;20386;-53
2022/05/30 15:07:37;;;;;;;2.13;0.60;;;;;;;;;;5049778;28;20388;-55
2022/05/30 15:10:04;;;;;;;1.25;0.55;;;;;;;;;;5050061;28;20376;-56
2022/05/30 15:12:30;;;;;;;1.17;0.50;;;;;;;;;;5048548;28;20552;-53
2022/05/30 15:14:56;;;;;;;1.48;0.60;;;;;;;;;;5049290;28;20380;-54
2022/05/30 15:17:22;;;;;;;1.35;0.60;;;;;;;;;;5068463;28;20426;-55
2022/05/30 15:19:48;;;;;;;1.65;0.40;;;;;;;;;;5047684;28;20380;-50
2022/05/30 15:22:16;;;;;;;0.70;0.60;;;;;;;;;;5049399;28;20445;-52
2022/05/30 15:24:54;;;;;;;0.98;0.45;;;;;;;;;;5049934;28;20403;-56
2022/05/30 15:27:20;;;;;;;2.13;0.50;;;;;;;;;;5051296;28;20379;-55
2022/05/30 15:29:46;;;;;;;1.52;0.47;;;;;;;;;;5051065;28;20445;-56
2022/05/30 15:32:27;;;;;;;2.03;0.50;;;;;;;;;;5050422;28;20376;-57
2022/05/30 15:34:53;;;;;;;0.73;0.40;;;;;;;;;;5067417;28;20400;-56
2022/05/30 15:37:20;;;;;;;0.90;0.50;;;;;;;;;;5050056;28;20392;-56
2022/05/30 15:39:46;;;;;;;3.13;0.60;;;;;;;;;;5051072;28;20493;-53